Terminal Aerodrome Forecast
Issued by NWS

Home | Current Version | Previous Version | Text Only | Print | Product List | Glossary On
Versions: 1 2 3 4 5 6 7 8 9 10 11 12 13 14 15 16 17
000
FTUS42 KGSP 240553 CCA
TAFGMU
TAF COR
KGMU 240553Z 2406/2506 21012G20KT 6SM BR SCT009 BKN013 OVC025
      TEMPO 2406/2410 BKN008 BKN013
     FM241700 22014G22KT P6SM BKN024
     FM242200 24009KT P6SM SCT250
     FM250000 24004KT P6SM SCT250=

USA.gov is the U.S. government's official web portal to all federal, state and local government web resources and services.